Station Historical Data
Daily Summary for May 27, 2017 Units:  Both    English   Metric
« Previous Day
Next Day »
Daily Weekly Monthly Yearly Custom
  High: Low: Average:
Temperature: 68.4 °F /  20.2 °C 53.8 °F /  12.1 °C 59.8 °F /  15.4 °C
Dew Point: 57.0 °F /  13.9 °C 51.2 °F /  10.7 °C 53.8 °F /  12.1 °C
Humidity: 94% 62% 82%
Wind Speed: 7.0mph /  11.3km/h - 1.7mph /  2.7km/h
Wind Gust: 9.0mph /  14.5km/h - -
Wind- - WSW
Pressure: 29.92 in /  1013.1 hPa 29.88 in /  1011.7 hPa -
Precipitation: 0.00 in /  0 mm    
Historical Graphs
 
 
Tabular Data for May 27, 2017
Time Temperature Dew Point Pressure Wind Wind Speed Wind Gust Humidity Rainfall Rate (Hourly)
00:04 53.8 °F /  12.1 °C 52.1 °F /  11.2 °C 29.88in /  1011.7hPa SW 2.0mph /  3.2km/h 6.0mph /  9.7km/h 94% 0.01in /  0.25mm
00:09 53.8 °F /  12.1 °C 52.1 °F /  11.2 °C 29.88in /  1011.7hPa SW 2.0mph /  3.2km/h 6.0mph /  9.7km/h 94% 0.01in /  0.25mm
00:14 53.8 °F /  12.1 °C 52.1 °F /  11.2 °C 29.88in /  1011.7hPa WSW 2.0mph /  3.2km/h 4.0mph /  6.4km/h 94% 0.01in /  0.25mm
00:19 53.9 °F /  12.2 °C 52.2 °F /  11.2 °C 29.89in /  1012.1hPa SW 2.0mph /  3.2km/h 7.0mph /  11.3km/h 94% 0.01in /  0.25mm
00:24 53.9 °F /  12.2 °C 52.2 °F /  11.2 °C 29.88in /  1011.7hPa SW 2.0mph /  3.2km/h 7.0mph /  11.3km/h 94% 0.01in /  0.25mm
00:29 53.9 °F /  12.2 °C 52.2 °F /  11.2 °C 29.88in /  1011.7hPa SW 2.0mph /  3.2km/h 5.0mph /  8km/h 94% 0.01in /  0.25mm
00:34 53.9 °F /  12.2 °C 52.2 °F /  11.2 °C 29.88in /  1011.7hPa SW 2.0mph /  3.2km/h 5.0mph /  8km/h 94% 0.01in /  0.25mm
00:39 54.0 °F /  12.2 °C 52.3 °F /  11.3 °C 29.88in /  1011.7hPa SW 2.0mph /  3.2km/h 5.0mph /  8km/h 94% 0.01in /  0.25mm
00:44 54.0 °F /  12.2 °C 52.3 °F /  11.3 °C 29.88in /  1011.7hPa SSW 3.0mph /  4.8km/h 6.0mph /  9.7km/h 94% 0.01in /  0.25mm
00:49 53.9 °F /  12.2 °C 52.2 °F /  11.2 °C 29.88in /  1011.7hPa SW 3.0mph /  4.8km/h 6.0mph /  9.7km/h 94% 0.00in /  0mm
00:54 53.9 °F /  12.2 °C 52.2 °F /  11.2 °C 29.88in /  1011.7hPa SW 2.0mph /  3.2km/h 4.0mph /  6.4km/h 94% 0.00in /  0mm
00:59 53.9 °F /  12.2 °C 52.2 °F /  11.2 °C 29.88in /  1011.7hPa SSW 3.0mph /  4.8km/h 6.0mph /  9.7km/h 94% 0.00in /  0mm
01:04 54.1 °F /  12.3 °C 52.4 °F /  11.3 °C 29.88in /  1011.7hPa SW 2.0mph /  3.2km/h 3.0mph /  4.8km/h 94% 0.00in /  0mm
01:09 54.1 °F /  12.3 °C 52.4 °F /  11.3 °C 29.88in /  1011.7hPa WSW 3.0mph /  4.8km/h 5.0mph /  8km/h 94% 0.00in /  0mm
01:14 54.1 °F /  12.3 °C 52.4 °F /  11.3 °C 29.88in /  1011.7hPa WSW 7.0mph /  11.3km/h 7.0mph /  11.3km/h 94% 0.00in /  0mm
01:19 53.9 °F /  12.2 °C 52.2 °F /  11.2 °C 29.88in /  1011.7hPa SW 3.0mph /  4.8km/h 7.0mph /  11.3km/h 94% 0.00in /  0mm
01:24 54.0 °F /  12.2 °C 52.3 °F /  11.3 °C 29.88in /  1011.7hPa SW 3.0mph /  4.8km/h 7.0mph /  11.3km/h 94% 0.00in /  0mm
01:29 53.9 °F /  12.2 °C 52.2 °F /  11.2 °C 29.88in /  1011.7hPa SSW 2.0mph /  3.2km/h 6.0mph /  9.7km/h 94% 0.00in /  0mm
01:34 53.9 °F /  12.2 °C 52.2 °F /  11.2 °C 29.88in /  1011.7hPa SW 1.0mph /  1.6km/h 6.0mph /  9.7km/h 94% 0.00in /  0mm
01:39 53.9 °F /  12.2 °C 52.2 °F /  11.2 °C 29.88in /  1011.7hPa WSW 2.0mph /  3.2km/h 5.0mph /  8km/h 94% 0.00in /  0mm
01:44 53.9 °F /  12.2 °C 52.2 °F /  11.2 °C 29.88in /  1011.7hPa SW 2.0mph /  3.2km/h 5.0mph /  8km/h 94% 0.00in /  0mm
01:49 54.0 °F /  12.2 °C 52.3 °F /  11.3 °C 29.88in /  1011.7hPa SW 3.0mph /  4.8km/h 5.0mph /  8km/h 94% 0.00in /  0mm
01:54 53.9 °F /  12.2 °C 52.2 °F /  11.2 °C 29.88in /  1011.7hPa SW 3.0mph /  4.8km/h 7.0mph /  11.3km/h 94% 0.00in /  0mm
01:59 53.9 °F /  12.2 °C 52.2 °F /  11.2 °C 29.89in /  1012.1hPa SW 2.0mph /  3.2km/h 7.0mph /  11.3km/h 94% 0.00in /  0mm
02:04 53.9 °F /  12.2 °C 52.2 °F /  11.2 °C 29.89in /  1012.1hPa SW 3.0mph /  4.8km/h 8.0mph /  12.9km/h 94% 0.00in /  0mm
02:09 53.9 °F /  12.2 °C 52.2 °F /  11.2 °C 29.89in /  1012.1hPa WSW 3.0mph /  4.8km/h 8.0mph /  12.9km/h 94% 0.00in /  0mm
02:14 53.9 °F /  12.2 °C 52.2 °F /  11.2 °C 29.89in /  1012.1hPa WSW 2.0mph /  3.2km/h 5.0mph /  8km/h 94% 0.00in /  0mm
02:19 54.0 °F /  12.2 °C 52.3 °F /  11.3 °C 29.89in /  1012.1hPa WSW 1.0mph /  1.6km/h 4.0mph /  6.4km/h 94% 0.00in /  0mm
02:24 54.0 °F /  12.2 °C 52.3 °F /  11.3 °C 29.89in /  1012.1hPa SW 5.0mph /  8km/h 6.0mph /  9.7km/h 94% 0.00in /  0mm
02:29 54.0 °F /  12.2 °C 52.0 °F /  11.1 °C 29.89in /  1012.1hPa SW 3.0mph /  4.8km/h 6.0mph /  9.7km/h 93% 0.00in /  0mm
02:34 54.0 °F /  12.2 °C 52.3 °F /  11.3 °C 29.89in /  1012.1hPa WSW 4.0mph /  6.4km/h 9.0mph /  14.5km/h 94% 0.00in /  0mm
02:39 54.0 °F /  12.2 °C 52.3 °F /  11.3 °C 29.89in /  1012.1hPa SSW 2.0mph /  3.2km/h 6.0mph /  9.7km/h 94% 0.00in /  0mm
02:44 53.9 °F /  12.2 °C 52.2 °F /  11.2 °C 29.89in /  1012.1hPa SW 3.0mph /  4.8km/h 6.0mph /  9.7km/h 94% 0.00in /  0mm
02:49 54.0 °F /  12.2 °C 52.3 °F /  11.3 °C 29.89in /  1012.1hPa SW 3.0mph /  4.8km/h 6.0mph /  9.7km/h 94% 0.00in /  0mm
02:54 54.0 °F /  12.2 °C 52.3 °F /  11.3 °C 29.89in /  1012.1hPa SW 3.0mph /  4.8km/h 6.0mph /  9.7km/h 94% 0.00in /  0mm
02:59 54.0 °F /  12.2 °C 52.3 °F /  11.3 °C 29.89in /  1012.1hPa SW 2.0mph /  3.2km/h 5.0mph /  8km/h 94% 0.00in /  0mm
03:04 54.0 °F /  12.2 °C 52.3 °F /  11.3 °C 29.89in /  1012.1hPa SW 1.0mph /  1.6km/h 6.0mph /  9.7km/h 94% 0.00in /  0mm
03:09 54.0 °F /  12.2 °C 52.3 °F /  11.3 °C 29.89in /  1012.1hPa SW 1.0mph /  1.6km/h 3.0mph /  4.8km/h 94% 0.00in /  0mm
03:14 54.0 °F /  12.2 °C 52.3 °F /  11.3 °C 29.89in /  1012.1hPa SW 1.0mph /  1.6km/h 3.0mph /  4.8km/h 94% 0.00in /  0mm
03:19 54.0 °F /  12.2 °C 52.0 °F /  11.1 °C 29.89in /  1012.1hPa SW 2.0mph /  3.2km/h 5.0mph /  8km/h 93% 0.00in /  0mm
03:24 54.0 °F /  12.2 °C 52.0 °F /  11.1 °C 29.89in /  1012.1hPa SSW 4.0mph /  6.4km/h 7.0mph /  11.3km/h 93% 0.00in /  0mm
03:29 53.9 °F /  12.2 °C 52.2 °F /  11.2 °C 29.89in /  1012.1hPa SW 1.0mph /  1.6km/h 4.0mph /  6.4km/h 94% 0.00in /  0mm
03:34 54.0 °F /  12.2 °C 52.3 °F /  11.3 °C 29.89in /  1012.1hPa WSW 2.0mph /  3.2km/h 7.0mph /  11.3km/h 94% 0.00in /  0mm
03:39 54.0 °F /  12.2 °C 52.3 °F /  11.3 °C 29.89in /  1012.1hPa SSW 2.0mph /  3.2km/h 5.0mph /  8km/h 94% 0.00in /  0mm
03:44 54.0 °F /  12.2 °C 52.3 °F /  11.3 °C 29.89in /  1012.1hPa SW 2.0mph /  3.2km/h 5.0mph /  8km/h 94% 0.00in /  0mm
03:49 54.0 °F /  12.2 °C 52.0 °F /  11.1 °C 29.89in /  1012.1hPa SW 3.0mph /  4.8km/h 5.0mph /  8km/h 93% 0.00in /  0mm
03:54 54.0 °F /  12.2 °C 52.0 °F /  11.1 °C 29.89in /  1012.1hPa SW 2.0mph /  3.2km/h 4.0mph /  6.4km/h 93% 0.00in /  0mm
03:59 54.0 °F /  12.2 °C 52.3 °F /  11.3 °C 29.89in /  1012.1hPa West 2.0mph /  3.2km/h 6.0mph /  9.7km/h 94% 0.00in /  0mm
04:04 54.0 °F /  12.2 °C 52.0 °F /  11.1 °C 29.89in /  1012.1hPa SW 5.0mph /  8km/h 5.0mph /  8km/h 93% 0.00in /  0mm
04:09 54.0 °F /  12.2 °C 52.0 °F /  11.1 °C 29.89in /  1012.1hPa SSW 2.0mph /  3.2km/h 5.0mph /  8km/h 93% 0.00in /  0mm
04:14 54.0 °F /  12.2 °C 52.0 °F /  11.1 °C 29.88in /  1011.7hPa SW 3.0mph /  4.8km/h 7.0mph /  11.3km/h 93% 0.00in /  0mm
04:19 54.0 °F /  12.2 °C 52.0 °F /  11.1 °C 29.89in /  1012.1hPa SW 3.0mph /  4.8km/h 7.0mph /  11.3km/h 93% 0.00in /  0mm
04:24 54.0 °F /  12.2 °C 52.0 °F /  11.1 °C 29.89in /  1012.1hPa SW 2.0mph /  3.2km/h 6.0mph /  9.7km/h 93% 0.00in /  0mm
04:29 54.1 °F /  12.3 °C 52.1 °F /  11.2 °C 29.89in /  1012.1hPa SW 2.0mph /  3.2km/h 6.0mph /  9.7km/h 93% 0.00in /  0mm
04:34 54.1 °F /  12.3 °C 52.1 °F /  11.2 °C 29.89in /  1012.1hPa SW 4.0mph /  6.4km/h 5.0mph /  8km/h 93% 0.00in /  0mm
04:39 54.1 °F /  12.3 °C 52.1 °F /  11.2 °C 29.89in /  1012.1hPa SW 2.0mph /  3.2km/h 6.0mph /  9.7km/h 93% 0.00in /  0mm
04:44 54.2 °F /  12.3 °C 52.2 °F /  11.2 °C 29.89in /  1012.1hPa SW 3.0mph /  4.8km/h 6.0mph /  9.7km/h 93% 0.00in /  0mm
04:49 54.2 °F /  12.3 °C 52.2 °F /  11.2 °C 29.89in /  1012.1hPa SW 3.0mph /  4.8km/h 5.0mph /  8km/h 93% 0.00in /  0mm
04:54 54.2 °F /  12.3 °C 52.2 °F /  11.2 °C 29.89in /  1012.1hPa SW 3.0mph /  4.8km/h 6.0mph /  9.7km/h 93% 0.00in /  0mm
04:59 54.1 °F /  12.3 °C 52.1 °F /  11.2 °C 29.89in /  1012.1hPa SW 1.0mph /  1.6km/h 7.0mph /  11.3km/h 93% 0.00in /  0mm
05:04 54.1 °F /  12.3 °C 52.1 °F /  11.2 °C 29.89in /  1012.1hPa SSW 4.0mph /  6.4km/h 6.0mph /  9.7km/h 93% 0.00in /  0mm
05:09 54.1 °F /  12.3 °C 52.1 °F /  11.2 °C 29.89in /  1012.1hPa SW 3.0mph /  4.8km/h 4.0mph /  6.4km/h 93% 0.00in /  0mm
05:14 54.2 °F /  12.3 °C 52.2 °F /  11.2 °C 29.89in /  1012.1hPa SW 2.0mph /  3.2km/h 4.0mph /  6.4km/h 93% 0.00in /  0mm
05:19 54.1 °F /  12.3 °C 52.1 °F /  11.2 °C 29.89in /  1012.1hPa SW 2.0mph /  3.2km/h 4.0mph /  6.4km/h 93% 0.00in /  0mm
05:24 54.1 °F /  12.3 °C 52.1 °F /  11.2 °C 29.89in /  1012.1hPa SW 1.0mph /  1.6km/h 4.0mph /  6.4km/h 93% 0.00in /  0mm
05:29 54.2 °F /  12.3 °C 52.2 °F /  11.2 °C 29.89in /  1012.1hPa WSW 2.0mph /  3.2km/h 4.0mph /  6.4km/h 93% 0.00in /  0mm
05:34 54.3 °F /  12.4 °C 52.3 °F /  11.3 °C 29.89in /  1012.1hPa Calm     93% 0.00in /  0mm
05:39 54.3 °F /  12.4 °C 52.3 °F /  11.3 °C 29.89in /  1012.1hPa SW 1.0mph /  1.6km/h 4.0mph /  6.4km/h 93% 0.00in /  0mm
05:44 54.4 °F /  12.4 °C 52.4 °F /  11.3 °C 29.89in /  1012.1hPa SW 1.0mph /  1.6km/h 4.0mph /  6.4km/h 93% 0.00in /  0mm
05:49 54.3 °F /  12.4 °C 52.3 °F /  11.3 °C 29.89in /  1012.1hPa SW 1.0mph /  1.6km/h 3.0mph /  4.8km/h 93% 0.00in /  0mm
05:54 54.3 °F /  12.4 °C 52.3 °F /  11.3 °C 29.89in /  1012.1hPa SW 1.0mph /  1.6km/h 5.0mph /  8km/h 93% 0.00in /  0mm
05:59 54.4 °F /  12.4 °C 52.4 °F /  11.3 °C 29.89in /  1012.1hPa Calm   3.0mph /  4.8km/h 93% 0.00in /  0mm
06:04 54.4 °F /  12.4 °C 52.4 °F /  11.3 °C 29.89in /  1012.1hPa SW 1.0mph /  1.6km/h 4.0mph /  6.4km/h 93% 0.00in /  0mm
06:09 54.4 °F /  12.4 °C 52.4 °F /  11.3 °C 29.89in /  1012.1hPa Calm   3.0mph /  4.8km/h 93% 0.00in /  0mm
06:14 54.4 °F /  12.4 °C 52.4 °F /  11.3 °C 29.89in /  1012.1hPa Calm     93% 0.00in /  0mm
06:19 54.5 °F /  12.5 °C 52.5 °F /  11.4 °C 29.90in /  1012.4hPa Calm   4.0mph /  6.4km/h 93% 0.00in /  0mm
06:24 54.5 °F /  12.5 °C 52.5 °F /  11.4 °C 29.90in /  1012.4hPa SW 1.0mph /  1.6km/h 4.0mph /  6.4km/h 93% 0.00in /  0mm
06:29 54.6 °F /  12.6 °C 52.6 °F /  11.4 °C 29.90in /  1012.4hPa SW 1.0mph /  1.6km/h 4.0mph /  6.4km/h 93% 0.00in /  0mm
06:34 54.7 °F /  12.6 °C 52.7 °F /  11.5 °C 29.90in /  1012.4hPa SW 2.0mph /  3.2km/h 4.0mph /  6.4km/h 93% 0.00in /  0mm
06:39 54.7 °F /  12.6 °C 52.7 °F /  11.5 °C 29.90in /  1012.4hPa SW 3.0mph /  4.8km/h 5.0mph /  8km/h 93% 0.00in /  0mm
06:44 54.8 °F /  12.7 °C 52.8 °F /  11.6 °C 29.90in /  1012.4hPa Calm   4.0mph /  6.4km/h 93% 0.00in /  0mm
06:49 54.9 °F /  12.7 °C 52.9 °F /  11.6 °C 29.90in /  1012.4hPa SW 2.0mph /  3.2km/h 6.0mph /  9.7km/h 93% 0.00in /  0mm
06:54 54.9 °F /  12.7 °C 52.9 °F /  11.6 °C 29.90in /  1012.4hPa SW 3.0mph /  4.8km/h 6.0mph /  9.7km/h 93% 0.00in /  0mm
06:59 55.0 °F /  12.8 °C 53.0 °F /  11.7 °C 29.90in /  1012.4hPa SSW 3.0mph /  4.8km/h 6.0mph /  9.7km/h 93% 0.00in /  0mm
07:04 55.0 °F /  12.8 °C 53.0 °F /  11.7 °C 29.90in /  1012.4hPa SW 1.0mph /  1.6km/h 6.0mph /  9.7km/h 93% 0.00in /  0mm
07:09 55.0 °F /  12.8 °C 53.0 °F /  11.7 °C 29.90in /  1012.4hPa SW 2.0mph /  3.2km/h 4.0mph /  6.4km/h 93% 0.00in /  0mm
07:14 55.2 °F /  12.9 °C 53.2 °F /  11.8 °C 29.90in /  1012.4hPa Calm   4.0mph /  6.4km/h 93% 0.00in /  0mm
07:19 55.2 °F /  12.9 °C 53.2 °F /  11.8 °C 29.90in /  1012.4hPa SW 2.0mph /  3.2km/h 5.0mph /  8km/h 93% 0.00in /  0mm
07:24 55.4 °F /  13 °C 53.1 °F /  11.7 °C 29.91in /  1012.8hPa SW 3.0mph /  4.8km/h 5.0mph /  8km/h 92% 0.00in /  0mm
07:29 55.4 °F /  13 °C 53.1 °F /  11.7 °C 29.91in /  1012.8hPa SW 3.0mph /  4.8km/h 5.0mph /  8km/h 92% 0.00in /  0mm
07:34 55.4 °F /  13 °C 53.1 °F /  11.7 °C 29.91in /  1012.8hPa SW 3.0mph /  4.8km/h 7.0mph /  11.3km/h 92% 0.00in /  0mm
07:39 55.6 °F /  13.1 °C 53.3 °F /  11.8 °C 29.91in /  1012.8hPa WSW 1.0mph /  1.6km/h 6.0mph /  9.7km/h 92% 0.00in /  0mm
07:44 55.7 °F /  13.2 °C 53.4 °F /  11.9 °C 29.90in /  1012.4hPa SSW 1.0mph /  1.6km/h 8.0mph /  12.9km/h 92% 0.00in /  0mm
07:49 55.9 °F /  13.3 °C 53.6 °F /  12 °C 29.91in /  1012.8hPa SW 4.0mph /  6.4km/h 5.0mph /  8km/h 92% 0.00in /  0mm
07:54 56.0 °F /  13.3 °C 53.4 °F /  11.9 °C 29.90in /  1012.4hPa SW 3.0mph /  4.8km/h 6.0mph /  9.7km/h 91% 0.00in /  0mm
07:59 56.3 °F /  13.5 °C 53.7 °F /  12.1 °C 29.90in /  1012.4hPa WSW 3.0mph /  4.8km/h 6.0mph /  9.7km/h 91% 0.00in /  0mm
08:04 56.5 °F /  13.6 °C 53.9 °F /  12.2 °C 29.90in /  1012.4hPa SSW 1.0mph /  1.6km/h 6.0mph /  9.7km/h 91% 0.00in /  0mm
08:09 56.5 °F /  13.6 °C 53.6 °F /  12 °C 29.90in /  1012.4hPa SW 1.0mph /  1.6km/h 5.0mph /  8km/h 90% 0.00in /  0mm
08:14 56.8 °F /  13.8 °C 53.9 °F /  12.2 °C 29.90in /  1012.4hPa SSW 4.0mph /  6.4km/h 5.0mph /  8km/h 90% 0.00in /  0mm
08:19 56.8 °F /  13.8 °C 53.9 °F /  12.2 °C 29.90in /  1012.4hPa South 3.0mph /  4.8km/h 6.0mph /  9.7km/h 90% 0.00in /  0mm
08:24 56.9 °F /  13.8 °C 54.0 °F /  12.2 °C 29.90in /  1012.4hPa SSW 2.0mph /  3.2km/h 6.0mph /  9.7km/h 90% 0.00in /  0mm
08:29 57.1 °F /  13.9 °C 54.2 °F /  12.3 °C 29.90in /  1012.4hPa SW 1.0mph /  1.6km/h 4.0mph /  6.4km/h 90% 0.00in /  0mm
08:34 57.3 °F /  14.1 °C 54.4 °F /  12.4 °C 29.90in /  1012.4hPa WSW 1.0mph /  1.6km/h 3.0mph /  4.8km/h 90% 0.00in /  0mm
08:39 57.6 °F /  14.2 °C 54.4 °F /  12.4 °C 29.91in /  1012.8hPa WSW 2.0mph /  3.2km/h 4.0mph /  6.4km/h 89% 0.00in /  0mm
08:44 57.5 °F /  14.2 °C 54.3 °F /  12.4 °C 29.91in /  1012.8hPa WSW 2.0mph /  3.2km/h 4.0mph /  6.4km/h 89% 0.00in /  0mm
08:49 57.4 °F /  14.1 °C 54.2 °F /  12.3 °C 29.91in /  1012.8hPa WSW 1.0mph /  1.6km/h 6.0mph /  9.7km/h 89% 0.00in /  0mm
08:54 57.5 °F /  14.2 °C 54.3 °F /  12.4 °C 29.91in /  1012.8hPa WSW 2.0mph /  3.2km/h 6.0mph /  9.7km/h 89% 0.00in /  0mm
08:59 57.8 °F /  14.3 °C 54.3 °F /  12.4 °C 29.91in /  1012.8hPa SW 1.0mph /  1.6km/h 4.0mph /  6.4km/h 88% 0.00in /  0mm
09:04 58.0 °F /  14.4 °C 54.8 °F /  12.7 °C 29.90in /  1012.4hPa SW 1.0mph /  1.6km/h 3.0mph /  4.8km/h 89% 0.00in /  0mm
09:09 58.1 °F /  14.5 °C 54.6 °F /  12.6 °C 29.91in /  1012.8hPa Calm   6.0mph /  9.7km/h 88% 0.00in /  0mm
09:14 58.2 °F /  14.6 °C 54.7 °F /  12.6 °C 29.91in /  1012.8hPa SW 3.0mph /  4.8km/h 5.0mph /  8km/h 88% 0.00in /  0mm
09:19 58.3 °F /  14.6 °C 54.8 °F /  12.7 °C 29.91in /  1012.8hPa SSW 3.0mph /  4.8km/h 5.0mph /  8km/h 88% 0.00in /  0mm
09:24 58.4 °F /  14.7 °C 54.9 °F /  12.7 °C 29.91in /  1012.8hPa SW 3.0mph /  4.8km/h 6.0mph /  9.7km/h 88% 0.00in /  0mm
09:29 58.6 °F /  14.8 °C 55.1 °F /  12.8 °C 29.91in /  1012.8hPa SW 3.0mph /  4.8km/h 6.0mph /  9.7km/h 88% 0.00in /  0mm
09:34 58.5 °F /  14.7 °C 54.6 °F /  12.6 °C 29.91in /  1012.8hPa SW 3.0mph /  4.8km/h 6.0mph /  9.7km/h 87% 0.00in /  0mm
09:39 58.5 °F /  14.7 °C 55.0 °F /  12.8 °C 29.92in /  1013.1hPa SW 3.0mph /  4.8km/h 5.0mph /  8km/h 88% 0.00in /  0mm
09:44 58.4 °F /  14.7 °C 54.5 °F /  12.5 °C 29.92in /  1013.1hPa WSW 3.0mph /  4.8km/h 5.0mph /  8km/h 87% 0.00in /  0mm
09:49 58.0 °F /  14.4 °C 54.2 °F /  12.3 °C 29.92in /  1013.1hPa WSW 3.0mph /  4.8km/h 6.0mph /  9.7km/h 87% 0.00in /  0mm
09:54 58.0 °F /  14.4 °C 54.2 °F /  12.3 °C 29.92in /  1013.1hPa WSW 3.0mph /  4.8km/h 7.0mph /  11.3km/h 87% 0.00in /  0mm
09:59 58.0 °F /  14.4 °C 54.2 °F /  12.3 °C 29.91in /  1012.8hPa SW 3.0mph /  4.8km/h 6.0mph /  9.7km/h 87% 0.00in /  0mm
10:04 58.3 °F /  14.6 °C 54.4 °F /  12.4 °C 29.91in /  1012.8hPa WSW 2.0mph /  3.2km/h 6.0mph /  9.7km/h 87% 0.00in /  0mm
10:09 58.8 °F /  14.9 °C 54.9 °F /  12.7 °C 29.91in /  1012.8hPa SW 4.0mph /  6.4km/h 6.0mph /  9.7km/h 87% 0.00in /  0mm
10:14 58.9 °F /  14.9 °C 54.7 °F /  12.6 °C 29.92in /  1013.1hPa SW 2.0mph /  3.2km/h 6.0mph /  9.7km/h 86% 0.00in /  0mm
10:19 58.8 °F /  14.9 °C 54.3 °F /  12.4 °C 29.92in /  1013.1hPa WSW 3.0mph /  4.8km/h 6.0mph /  9.7km/h 85% 0.00in /  0mm
10:24 58.6 °F /  14.8 °C 54.4 °F /  12.4 °C 29.92in /  1013.1hPa West 4.0mph /  6.4km/h 7.0mph /  11.3km/h 86% 0.00in /  0mm
10:29 58.9 °F /  14.9 °C 54.4 °F /  12.4 °C 29.92in /  1013.1hPa WSW 3.0mph /  4.8km/h 8.0mph /  12.9km/h 85% 0.00in /  0mm
10:34 59.7 °F /  15.4 °C 55.5 °F /  13.1 °C 29.92in /  1013.1hPa West 3.0mph /  4.8km/h 8.0mph /  12.9km/h 86% 0.00in /  0mm
10:39 59.6 °F /  15.3 °C 54.8 °F /  12.7 °C 29.92in /  1013.1hPa West 3.0mph /  4.8km/h 6.0mph /  9.7km/h 84% 0.00in /  0mm
10:44 59.8 °F /  15.4 °C 55.0 °F /  12.8 °C 29.92in /  1013.1hPa West 1.0mph /  1.6km/h 5.0mph /  8km/h 84% 0.00in /  0mm
10:49 60.2 °F /  15.7 °C 55.3 °F /  12.9 °C 29.92in /  1013.1hPa WSW 1.0mph /  1.6km/h 4.0mph /  6.4km/h 84% 0.00in /  0mm
10:54 60.1 °F /  15.6 °C 55.6 °F /  13.1 °C 29.92in /  1013.1hPa WSW 3.0mph /  4.8km/h 6.0mph /  9.7km/h 85% 0.00in /  0mm
10:59 60.0 °F /  15.6 °C 55.2 °F /  12.9 °C 29.92in /  1013.1hPa WSW 3.0mph /  4.8km/h 6.0mph /  9.7km/h 84% 0.00in /  0mm
11:04 60.2 °F /  15.7 °C 55.0 °F /  12.8 °C 29.91in /  1012.8hPa WSW 2.0mph /  3.2km/h 5.0mph /  8km/h 83% 0.00in /  0mm
11:09 60.6 °F /  15.9 °C 55.4 °F /  13 °C 29.92in /  1013.1hPa WSW 3.0mph /  4.8km/h 5.0mph /  8km/h 83% 0.00in /  0mm
11:14 60.8 °F /  16 °C 55.3 °F /  12.9 °C 29.92in /  1013.1hPa SSW 2.0mph /  3.2km/h 5.0mph /  8km/h 82% 0.00in /  0mm
11:19 61.2 °F /  16.2 °C 55.7 °F /  13.2 °C 29.91in /  1012.8hPa SW 4.0mph /  6.4km/h 6.0mph /  9.7km/h 82% 0.00in /  0mm
11:24 60.8 °F /  16 °C 54.9 °F /  12.7 °C 29.91in /  1012.8hPa SW 2.0mph /  3.2km/h 6.0mph /  9.7km/h 81% 0.00in /  0mm
11:29 61.2 °F /  16.2 °C 55.7 °F /  13.2 °C 29.91in /  1012.8hPa SW 2.0mph /  3.2km/h 6.0mph /  9.7km/h 82% 0.00in /  0mm
11:34 61.8 °F /  16.6 °C 56.6 °F /  13.7 °C 29.91in /  1012.8hPa SW 4.0mph /  6.4km/h 5.0mph /  8km/h 83% 0.00in /  0mm
11:39 62.6 °F /  17 °C 56.3 °F /  13.5 °C 29.91in /  1012.8hPa SW 2.0mph /  3.2km/h 5.0mph /  8km/h 80% 0.00in /  0mm
11:44 62.9 °F /  17.2 °C 56.6 °F /  13.7 °C 29.91in /  1012.8hPa SSW 2.0mph /  3.2km/h 5.0mph /  8km/h 80% 0.00in /  0mm
11:49 63.1 °F /  17.3 °C 56.8 °F /  13.8 °C 29.91in /  1012.8hPa SW 2.0mph /  3.2km/h 4.0mph /  6.4km/h 80% 0.00in /  0mm
11:54 63.0 °F /  17.2 °C 56.0 °F /  13.3 °C 29.91in /  1012.8hPa SW 2.0mph /  3.2km/h 5.0mph /  8km/h 78% 0.00in /  0mm
11:59 63.5 °F /  17.5 °C 56.5 °F /  13.6 °C 29.92in /  1013.1hPa SW 3.0mph /  4.8km/h 6.0mph /  9.7km/h 78% 0.00in /  0mm
12:04 64.0 °F /  17.8 °C 57.0 °F /  13.9 °C 29.91in /  1012.8hPa SW 4.0mph /  6.4km/h 6.0mph /  9.7km/h 78% 0.00in /  0mm
12:09 63.6 °F /  17.6 °C 55.9 °F /  13.3 °C 29.92in /  1013.1hPa WSW 3.0mph /  4.8km/h 6.0mph /  9.7km/h 76% 0.00in /  0mm
12:14 64.7 °F /  18.2 °C 57.0 °F /  13.9 °C 29.92in /  1013.1hPa WSW 3.0mph /  4.8km/h 7.0mph /  11.3km/h 76% 0.00in /  0mm
12:19 64.6 °F /  18.1 °C 56.9 °F /  13.8 °C 29.92in /  1013.1hPa West 2.0mph /  3.2km/h 6.0mph /  9.7km/h 76% 0.00in /  0mm
12:24 65.0 °F /  18.3 °C 55.8 °F /  13.2 °C 29.92in /  1013.1hPa West 1.0mph /  1.6km/h 5.0mph /  8km/h 72% 0.00in /  0mm
12:29 64.7 °F /  18.2 °C 55.8 °F /  13.2 °C 29.91in /  1012.8hPa Calm   6.0mph /  9.7km/h 73% 0.00in /  0mm
12:34 65.4 °F /  18.6 °C 56.9 °F /  13.8 °C 29.91in /  1012.8hPa WNW 4.0mph /  6.4km/h 6.0mph /  9.7km/h 74% 0.00in /  0mm
12:39 65.2 °F /  18.4 °C 56.3 °F /  13.5 °C 29.91in /  1012.8hPa Calm   6.0mph /  9.7km/h 73% 0.00in /  0mm
12:44 65.2 °F /  18.4 °C 55.9 °F /  13.3 °C 29.91in /  1012.8hPa Calm   4.0mph /  6.4km/h 72% 0.00in /  0mm
12:49 64.8 °F /  18.2 °C 56.3 °F /  13.5 °C 29.92in /  1013.1hPa WNW 4.0mph /  6.4km/h 7.0mph /  11.3km/h 74% 0.00in /  0mm
12:54 64.9 °F /  18.3 °C 55.3 °F /  12.9 °C 29.92in /  1013.1hPa WSW 3.0mph /  4.8km/h 7.0mph /  11.3km/h 71% 0.00in /  0mm
12:59 65.2 °F /  18.4 °C 55.9 °F /  13.3 °C 29.92in /  1013.1hPa West 3.0mph /  4.8km/h 7.0mph /  11.3km/h 72% 0.00in /  0mm
13:04 64.8 °F /  18.2 °C 55.6 °F /  13.1 °C 29.92in /  1013.1hPa WNW 2.0mph /  3.2km/h 7.0mph /  11.3km/h 72% 0.00in /  0mm
13:09 64.4 °F /  18 °C 54.8 °F /  12.7 °C 29.91in /  1012.8hPa WNW 2.0mph /  3.2km/h 7.0mph /  11.3km/h 71% 0.00in /  0mm
13:14 64.2 °F /  17.9 °C 54.6 °F /  12.6 °C 29.91in /  1012.8hPa West 2.0mph /  3.2km/h 5.0mph /  8km/h 71% 0.00in /  0mm
13:19 64.3 °F /  17.9 °C 55.5 °F /  13.1 °C 29.92in /  1013.1hPa West 2.0mph /  3.2km/h 5.0mph /  8km/h 73% 0.00in /  0mm
13:24 64.4 °F /  18 °C 55.9 °F /  13.3 °C 29.91in /  1012.8hPa NW 3.0mph /  4.8km/h 4.0mph /  6.4km/h 74% 0.00in /  0mm
13:29 64.4 °F /  18 °C 55.6 °F /  13.1 °C 29.91in /  1012.8hPa NW 1.0mph /  1.6km/h 3.0mph /  4.8km/h 73% 0.00in /  0mm
13:34 64.7 °F /  18.2 °C 55.8 °F /  13.2 °C 29.92in /  1013.1hPa West 2.0mph /  3.2km/h 5.0mph /  8km/h 73% 0.00in /  0mm
13:39 64.4 °F /  18 °C 55.2 °F /  12.9 °C 29.92in /  1013.1hPa WNW 2.0mph /  3.2km/h 4.0mph /  6.4km/h 72% 0.00in /  0mm
13:44 64.9 °F /  18.3 °C 56.0 °F /  13.3 °C 29.92in /  1013.1hPa WNW 3.0mph /  4.8km/h 7.0mph /  11.3km/h 73% 0.00in /  0mm
13:49 65.1 °F /  18.4 °C 56.2 °F /  13.4 °C 29.92in /  1013.1hPa West 2.0mph /  3.2km/h 6.0mph /  9.7km/h 73% 0.00in /  0mm
13:54 65.0 °F /  18.3 °C 55.8 °F /  13.2 °C 29.92in /  1013.1hPa West 2.0mph /  3.2km/h 6.0mph /  9.7km/h 72% 0.00in /  0mm
13:59 65.3 °F /  18.5 °C 56.0 °F /  13.3 °C 29.92in /  1013.1hPa WNW 3.0mph /  4.8km/h 6.0mph /  9.7km/h 72% 0.00in /  0mm
14:04 65.3 °F /  18.5 °C 55.7 °F /  13.2 °C 29.92in /  1013.1hPa WNW 3.0mph /  4.8km/h 6.0mph /  9.7km/h 71% 0.00in /  0mm
14:09 65.8 °F /  18.8 °C 56.1 °F /  13.4 °C 29.92in /  1013.1hPa WNW 3.0mph /  4.8km/h 6.0mph /  9.7km/h 71% 0.00in /  0mm
14:14 66.2 °F /  19 °C 56.1 °F /  13.4 °C 29.91in /  1012.8hPa WNW 3.0mph /  4.8km/h 5.0mph /  8km/h 70% 0.00in /  0mm
14:19 66.1 °F /  18.9 °C 55.6 °F /  13.1 °C 29.92in /  1013.1hPa WNW 3.0mph /  4.8km/h 8.0mph /  12.9km/h 69% 0.00in /  0mm
14:24 66.2 °F /  19 °C 55.7 °F /  13.2 °C 29.91in /  1012.8hPa WNW 2.0mph /  3.2km/h 5.0mph /  8km/h 69% 0.00in /  0mm
14:29 65.8 °F /  18.8 °C 54.5 °F /  12.5 °C 29.91in /  1012.8hPa West 2.0mph /  3.2km/h 5.0mph /  8km/h 67% 0.00in /  0mm
14:34 65.6 °F /  18.7 °C 55.9 °F /  13.3 °C 29.91in /  1012.8hPa WSW 2.0mph /  3.2km/h 5.0mph /  8km/h 71% 0.00in /  0mm
14:39 66.3 °F /  19.1 °C 55.8 °F /  13.2 °C 29.91in /  1012.8hPa WSW 2.0mph /  3.2km/h 5.0mph /  8km/h 69% 0.00in /  0mm
14:44 66.6 °F /  19.2 °C 56.9 °F /  13.8 °C 29.90in /  1012.4hPa SW 1.0mph /  1.6km/h 4.0mph /  6.4km/h 71% 0.00in /  0mm
14:49 66.8 °F /  19.3 °C 55.9 °F /  13.3 °C 29.90in /  1012.4hPa Calm   4.0mph /  6.4km/h 68% 0.00in /  0mm
14:59 66.2 °F /  19 °C 54.5 °F /  12.5 °C 29.90in /  1012.4hPa WSW 2.0mph /  3.2km/h 6.0mph /  9.7km/h 66% 0.00in /  0mm
15:04 66.1 °F /  18.9 °C 55.6 °F /  13.1 °C 29.90in /  1012.4hPa SW 3.0mph /  4.8km/h 6.0mph /  9.7km/h 69% 0.00in /  0mm
15:09 66.8 °F /  19.3 °C 55.5 °F /  13.1 °C 29.90in /  1012.4hPa SW 2.0mph /  3.2km/h 6.0mph /  9.7km/h 67% 0.00in /  0mm
15:14 66.6 °F /  19.2 °C 55.7 °F /  13.2 °C 29.90in /  1012.4hPa WSW 1.0mph /  1.6km/h 5.0mph /  8km/h 68% 0.00in /  0mm
15:19 66.2 °F /  19 °C 55.3 °F /  12.9 °C 29.90in /  1012.4hPa SW 7.0mph /  11.3km/h 7.0mph /  11.3km/h 68% 0.00in /  0mm
15:24 66.4 °F /  19.1 °C 55.9 °F /  13.3 °C 29.90in /  1012.4hPa WSW 1.0mph /  1.6km/h 7.0mph /  11.3km/h 69% 0.00in /  0mm
15:29 66.3 °F /  19.1 °C 55.4 °F /  13 °C 29.90in /  1012.4hPa WSW 1.0mph /  1.6km/h 4.0mph /  6.4km/h 68% 0.00in /  0mm
15:34 66.2 °F /  19 °C 55.7 °F /  13.2 °C 29.90in /  1012.4hPa WSW 2.0mph /  3.2km/h 4.0mph /  6.4km/h 69% 0.00in /  0mm
15:39 66.8 °F /  19.3 °C 55.9 °F /  13.3 °C 29.89in /  1012.1hPa West 2.0mph /  3.2km/h 5.0mph /  8km/h 68% 0.00in /  0mm
15:44 66.7 °F /  19.3 °C 55.8 °F /  13.2 °C 29.89in /  1012.1hPa WNW 2.0mph /  3.2km/h 5.0mph /  8km/h 68% 0.00in /  0mm
15:49 66.8 °F /  19.3 °C 55.1 °F /  12.8 °C 29.88in /  1011.7hPa West 2.0mph /  3.2km/h 5.0mph /  8km/h 66% 0.00in /  0mm
15:54 66.9 °F /  19.4 °C 55.6 °F /  13.1 °C 29.88in /  1011.7hPa West 2.0mph /  3.2km/h 4.0mph /  6.4km/h 67% 0.00in /  0mm
15:59 66.9 °F /  19.4 °C 55.6 °F /  13.1 °C 29.89in /  1012.1hPa Calm   3.0mph /  4.8km/h 67% 0.00in /  0mm
16:04 67.4 °F /  19.7 °C 56.5 °F /  13.6 °C 29.89in /  1012.1hPa WSW 3.0mph /  4.8km/h 5.0mph /  8km/h 68% 0.00in /  0mm
16:09 67.4 °F /  19.7 °C 55.6 °F /  13.1 °C 29.89in /  1012.1hPa WSW 3.0mph /  4.8km/h 4.0mph /  6.4km/h 66% 0.00in /  0mm
16:14 66.6 °F /  19.2 °C 54.9 °F /  12.7 °C 29.89in /  1012.1hPa West 4.0mph /  6.4km/h 4.0mph /  6.4km/h 66% 0.00in /  0mm
16:19 67.0 °F /  19.4 °C 55.7 °F /  13.2 °C 29.89in /  1012.1hPa WNW 2.0mph /  3.2km/h 5.0mph /  8km/h 67% 0.00in /  0mm
16:24 66.7 °F /  19.3 °C 55.0 °F /  12.8 °C 29.89in /  1012.1hPa NW 2.0mph /  3.2km/h 4.0mph /  6.4km/h 66% 0.00in /  0mm
16:29 66.5 °F /  19.2 °C 55.2 °F /  12.9 °C 29.89in /  1012.1hPa West 4.0mph /  6.4km/h 4.0mph /  6.4km/h 67% 0.00in /  0mm
16:34 66.6 °F /  19.2 °C 54.9 °F /  12.7 °C 29.89in /  1012.1hPa WNW 2.0mph /  3.2km/h 5.0mph /  8km/h 66% 0.00in /  0mm
16:39 66.3 °F /  19.1 °C 55.0 °F /  12.8 °C 29.90in /  1012.4hPa West 2.0mph /  3.2km/h 5.0mph /  8km/h 67% 0.00in /  0mm
16:44 66.2 °F /  19 °C 54.9 °F /  12.7 °C 29.90in /  1012.4hPa WNW 2.0mph /  3.2km/h 6.0mph /  9.7km/h 67% 0.00in /  0mm
16:49 66.1 °F /  18.9 °C 54.8 °F /  12.7 °C 29.89in /  1012.1hPa WNW 3.0mph /  4.8km/h 4.0mph /  6.4km/h 67% 0.00in /  0mm
16:54 65.9 °F /  18.8 °C 54.6 °F /  12.6 °C 29.90in /  1012.4hPa Calm   3.0mph /  4.8km/h 67% 0.00in /  0mm
16:59 65.8 °F /  18.8 °C 54.1 °F /  12.3 °C 29.89in /  1012.1hPa Calm   3.0mph /  4.8km/h 66% 0.00in /  0mm
17:04 65.7 °F /  18.7 °C 54.4 °F /  12.4 °C 29.90in /  1012.4hPa WNW 1.0mph /  1.6km/h 3.0mph /  4.8km/h 67% 0.00in /  0mm
17:09 65.9 °F /  18.8 °C 54.6 °F /  12.6 °C 29.90in /  1012.4hPa WNW 1.0mph /  1.6km/h 3.0mph /  4.8km/h 67% 0.00in /  0mm
17:14 65.9 °F /  18.8 °C 55.4 °F /  13 °C 29.90in /  1012.4hPa WNW 1.0mph /  1.6km/h 3.0mph /  4.8km/h 69% 0.00in /  0mm
17:19 65.9 °F /  18.8 °C 54.6 °F /  12.6 °C 29.89in /  1012.1hPa NW 1.0mph /  1.6km/h 3.0mph /  4.8km/h 67% 0.00in /  0mm
17:24 65.9 °F /  18.8 °C 54.6 °F /  12.6 °C 29.90in /  1012.4hPa NW 2.0mph /  3.2km/h 4.0mph /  6.4km/h 67% 0.00in /  0mm
17:29 66.2 °F /  19 °C 54.5 °F /  12.5 °C 29.90in /  1012.4hPa NW 1.0mph /  1.6km/h 4.0mph /  6.4km/h 66% 0.00in /  0mm
17:34 66.4 °F /  19.1 °C 53.8 °F /  12.1 °C 29.90in /  1012.4hPa NW 1.0mph /  1.6km/h 3.0mph /  4.8km/h 64% 0.00in /  0mm
17:39 66.7 °F /  19.3 °C 55.8 °F /  13.2 °C 29.90in /  1012.4hPa Calm   2.0mph /  3.2km/h 68% 0.00in /  0mm
17:44 67.9 °F /  19.9 °C 56.1 °F /  13.4 °C 29.89in /  1012.1hPa Calm   3.0mph /  4.8km/h 66% 0.00in /  0mm
17:49 68.4 °F /  20.2 °C 55.3 °F /  12.9 °C 29.89in /  1012.1hPa NNW 1.0mph /  1.6km/h 3.0mph /  4.8km/h 63% 0.00in /  0mm
17:54 67.8 °F /  19.9 °C 55.2 °F /  12.9 °C 29.90in /  1012.4hPa Calm   4.0mph /  6.4km/h 64% 0.00in /  0mm
17:59 67.7 °F /  19.8 °C 54.6 °F /  12.6 °C 29.90in /  1012.4hPa North 1.0mph /  1.6km/h 4.0mph /  6.4km/h 63% 0.00in /  0mm
18:04 67.6 °F /  19.8 °C 54.1 °F /  12.3 °C 29.90in /  1012.4hPa NNW 1.0mph /  1.6km/h 4.0mph /  6.4km/h 62% 0.00in /  0mm
18:09 67.1 °F /  19.5 °C 54.5 °F /  12.5 °C 29.90in /  1012.4hPa NW 1.0mph /  1.6km/h 3.0mph /  4.8km/h 64% 0.00in /  0mm
18:14 66.9 °F /  19.4 °C 54.3 °F /  12.4 °C 29.90in /  1012.4hPa WNW 1.0mph /  1.6km/h 3.0mph /  4.8km/h 64% 0.00in /  0mm
18:19 66.8 °F /  19.3 °C 54.7 °F /  12.6 °C 29.90in /  1012.4hPa WNW 1.0mph /  1.6km/h 3.0mph /  4.8km/h 65% 0.00in /  0mm
18:24 67.1 °F /  19.5 °C 54.1 °F /  12.3 °C 29.90in /  1012.4hPa WNW 2.0mph /  3.2km/h 3.0mph /  4.8km/h 63% 0.00in /  0mm
18:29 67.0 °F /  19.4 °C 54.8 °F /  12.7 °C 29.90in /  1012.4hPa WNW 1.0mph /  1.6km/h 3.0mph /  4.8km/h 65% 0.00in /  0mm
18:34 66.8 °F /  19.3 °C 55.9 °F /  13.3 °C 29.90in /  1012.4hPa Calm   2.0mph /  3.2km/h 68% 0.00in /  0mm
18:39 66.7 °F /  19.3 °C 55.4 °F /  13 °C 29.90in /  1012.4hPa Calm   4.0mph /  6.4km/h 67% 0.00in /  0mm
18:44 66.7 °F /  19.3 °C 55.4 °F /  13 °C 29.90in /  1012.4hPa Calm     67% 0.00in /  0mm
18:49 66.5 °F /  19.2 °C 55.2 °F /  12.9 °C 29.90in /  1012.4hPa Calm   2.0mph /  3.2km/h 67% 0.00in /  0mm
18:54 66.5 °F /  19.2 °C 55.6 °F /  13.1 °C 29.91in /  1012.8hPa Calm   1.0mph /  1.6km/h 68% 0.00in /  0mm
18:59 66.6 °F /  19.2 °C 55.3 °F /  12.9 °C 29.91in /  1012.8hPa South 1.0mph /  1.6km/h 4.0mph /  6.4km/h 67% 0.00in /  0mm
19:04 66.7 °F /  19.3 °C 55.0 °F /  12.8 °C 29.91in /  1012.8hPa South 1.0mph /  1.6km/h 4.0mph /  6.4km/h 66% 0.00in /  0mm
19:09 66.7 °F /  19.3 °C 54.1 °F /  12.3 °C 29.91in /  1012.8hPa NNW 1.0mph /  1.6km/h 4.0mph /  6.4km/h 64% 0.00in /  0mm
19:14 66.6 °F /  19.2 °C 54.5 °F /  12.5 °C 29.91in /  1012.8hPa NW 1.0mph /  1.6km/h 4.0mph /  6.4km/h 65% 0.00in /  0mm
19:19 66.4 °F /  19.1 °C 54.3 °F /  12.4 °C 29.91in /  1012.8hPa NW 1.0mph /  1.6km/h 4.0mph /  6.4km/h 65% 0.00in /  0mm
19:24 66.3 °F /  19.1 °C 54.6 °F /  12.6 °C 29.92in /  1013.1hPa NNW 2.0mph /  3.2km/h 5.0mph /  8km/h 66% 0.00in /  0mm
19:29 66.1 °F /  18.9 °C 54.0 °F /  12.2 °C 29.92in /  1013.1hPa NNW 1.0mph /  1.6km/h 3.0mph /  4.8km/h 65% 0.00in /  0mm
19:34 65.9 °F /  18.8 °C 53.8 °F /  12.1 °C 29.91in /  1012.8hPa NNW 1.0mph /  1.6km/h 3.0mph /  4.8km/h 65% 0.00in /  0mm
19:39 66.0 °F /  18.9 °C 53.5 °F /  11.9 °C 29.91in /  1012.8hPa Calm   2.0mph /  3.2km/h 64% 0.00in /  0mm
19:44 66.1 °F /  18.9 °C 53.6 °F /  12 °C 29.91in /  1012.8hPa Calm   3.0mph /  4.8km/h 64% 0.00in /  0mm
19:49 65.8 °F /  18.8 °C 54.5 °F /  12.5 °C 29.91in /  1012.8hPa SSW 1.0mph /  1.6km/h 4.0mph /  6.4km/h 67% 0.00in /  0mm
19:54 65.2 °F /  18.4 °C 54.4 °F /  12.4 °C 29.91in /  1012.8hPa Calm   5.0mph /  8km/h 68% 0.00in /  0mm
19:59 64.8 °F /  18.2 °C 54.4 °F /  12.4 °C 29.91in /  1012.8hPa SW 1.0mph /  1.6km/h 3.0mph /  4.8km/h 69% 0.00in /  0mm
20:04 64.8 °F /  18.2 °C 54.8 °F /  12.7 °C 29.91in /  1012.8hPa SW 1.0mph /  1.6km/h 3.0mph /  4.8km/h 70% 0.00in /  0mm
20:09 64.6 °F /  18.1 °C 54.6 °F /  12.6 °C 29.91in /  1012.8hPa SW 1.0mph /  1.6km/h 3.0mph /  4.8km/h 70% 0.00in /  0mm
20:14 64.5 °F /  18.1 °C 54.1 °F /  12.3 °C 29.91in /  1012.8hPa Calm   2.0mph /  3.2km/h 69% 0.00in /  0mm
20:19 64.4 °F /  18 °C 54.4 °F /  12.4 °C 29.91in /  1012.8hPa Calm   2.0mph /  3.2km/h 70% 0.00in /  0mm
20:24 64.2 °F /  17.9 °C 53.8 °F /  12.1 °C 29.91in /  1012.8hPa Calm   2.0mph /  3.2km/h 69% 0.00in /  0mm
20:29 64.2 °F /  17.9 °C 53.8 °F /  12.1 °C 29.91in /  1012.8hPa SW 1.0mph /  1.6km/h 2.0mph /  3.2km/h 69% 0.00in /  0mm
20:34 64.1 °F /  17.8 °C 53.7 °F /  12.1 °C 29.91in /  1012.8hPa Calm   2.0mph /  3.2km/h 69% 0.00in /  0mm
20:39 63.9 °F /  17.7 °C 53.9 °F /  12.2 °C 29.91in /  1012.8hPa Calm   1.0mph /  1.6km/h 70% 0.00in /  0mm
20:44 63.8 °F /  17.7 °C 54.2 °F /  12.3 °C 29.91in /  1012.8hPa Calm   1.0mph /  1.6km/h 71% 0.00in /  0mm
20:49 63.5 °F /  17.5 °C 53.9 °F /  12.2 °C 29.91in /  1012.8hPa Calm     71% 0.00in /  0mm
20:54 63.1 °F /  17.3 °C 53.9 °F /  12.2 °C 29.90in /  1012.4hPa Calm     72% 0.00in /  0mm
20:59 62.7 °F /  17.1 °C 53.5 °F /  11.9 °C 29.90in /  1012.4hPa Calm     72% 0.00in /  0mm
21:04 62.3 °F /  16.8 °C 53.5 °F /  11.9 °C 29.90in /  1012.4hPa Calm     73% 0.00in /  0mm
21:09 61.9 °F /  16.6 °C 53.5 °F /  11.9 °C 29.90in /  1012.4hPa Calm     74% 0.00in /  0mm
21:14 61.5 °F /  16.4 °C 53.1 °F /  11.7 °C 29.90in /  1012.4hPa Calm     74% 0.00in /  0mm
21:19 61.3 °F /  16.3 °C 53.3 °F /  11.8 °C 29.90in /  1012.4hPa Calm   2.0mph /  3.2km/h 75% 0.00in /  0mm
21:24 61.0 °F /  16.1 °C 53.0 °F /  11.7 °C 29.90in /  1012.4hPa Calm   1.0mph /  1.6km/h 75% 0.00in /  0mm
21:29 60.3 °F /  15.7 °C 52.7 °F /  11.5 °C 29.91in /  1012.8hPa Calm     76% 0.00in /  0mm
21:34 59.9 °F /  15.5 °C 53.0 °F /  11.7 °C 29.91in /  1012.8hPa Calm     78% 0.00in /  0mm
21:39 59.4 °F /  15.2 °C 52.5 °F /  11.4 °C 29.91in /  1012.8hPa Calm     78% 0.00in /  0mm
21:44 59.1 °F /  15.1 °C 52.6 °F /  11.4 °C 29.91in /  1012.8hPa Calm     79% 0.00in /  0mm
21:49 58.7 °F /  14.8 °C 52.5 °F /  11.4 °C 29.91in /  1012.8hPa Calm     80% 0.00in /  0mm
21:54 58.5 °F /  14.7 °C 52.4 °F /  11.3 °C 29.91in /  1012.8hPa Calm     80% 0.00in /  0mm
21:59 58.3 °F /  14.6 °C 52.8 °F /  11.6 °C 29.91in /  1012.8hPa Calm     82% 0.00in /  0mm
22:04 58.1 °F /  14.5 °C 52.6 °F /  11.4 °C 29.90in /  1012.4hPa Calm     82% 0.00in /  0mm
22:09 57.9 °F /  14.4 °C 52.4 °F /  11.3 °C 29.91in /  1012.8hPa Calm     82% 0.00in /  0mm
22:14 57.8 °F /  14.3 °C 52.3 °F /  11.3 °C 29.90in /  1012.4hPa Calm     82% 0.00in /  0mm
22:19 57.5 °F /  14.2 °C 52.0 °F /  11.1 °C 29.90in /  1012.4hPa Calm     82% 0.00in /  0mm
22:24 57.4 °F /  14.1 °C 52.3 °F /  11.3 °C 29.90in /  1012.4hPa Calm     83% 0.00in /  0mm
22:29 57.1 °F /  13.9 °C 52.0 °F /  11.1 °C 29.90in /  1012.4hPa Calm     83% 0.00in /  0mm
22:34 57.5 °F /  14.2 °C 52.7 °F /  11.5 °C 29.89in /  1012.1hPa Calm   2.0mph /  3.2km/h 84% 0.00in /  0mm
22:39 57.6 °F /  14.2 °C 52.8 °F /  11.6 °C 29.89in /  1012.1hPa Calm     84% 0.00in /  0mm
22:44 57.6 °F /  14.2 °C 52.8 °F /  11.6 °C 29.90in /  1012.4hPa Calm     84% 0.00in /  0mm
22:49 57.3 °F /  14.1 °C 52.5 °F /  11.4 °C 29.90in /  1012.4hPa Calm     84% 0.00in /  0mm
22:54 57.0 °F /  13.9 °C 52.2 °F /  11.2 °C 29.90in /  1012.4hPa Calm     84% 0.00in /  0mm
22:59 56.7 °F /  13.7 °C 52.2 °F /  11.2 °C 29.90in /  1012.4hPa Calm     85% 0.00in /  0mm
23:04 56.4 °F /  13.6 °C 51.9 °F /  11.1 °C 29.91in /  1012.8hPa Calm     85% 0.00in /  0mm
23:09 56.0 °F /  13.3 °C 51.9 °F /  11.1 °C 29.91in /  1012.8hPa Calm     86% 0.00in /  0mm
23:14 55.8 °F /  13.2 °C 51.7 °F /  10.9 °C 29.91in /  1012.8hPa Calm     86% 0.00in /  0mm
23:19 55.5 °F /  13.1 °C 51.7 °F /  10.9 °C 29.90in /  1012.4hPa Calm     87% 0.00in /  0mm
23:24 55.5 °F /  13.1 °C 51.7 °F /  10.9 °C 29.90in /  1012.4hPa Calm     87% 0.00in /  0mm
23:29 55.4 °F /  13 °C 51.6 °F /  10.9 °C 29.91in /  1012.8hPa Calm     87% 0.00in /  0mm
23:34 55.5 °F /  13.1 °C 52.0 °F /  11.1 °C 29.92in /  1013.1hPa Calm     88% 0.00in /  0mm
23:44 55.0 °F /  12.8 °C 51.5 °F /  10.8 °C 29.92in /  1013.1hPa Calm     88% 0.00in /  0mm
23:49 54.8 °F /  12.7 °C 51.3 °F /  10.7 °C 29.92in /  1013.1hPa Calm     88% 0.00in /  0mm
23:54 54.7 °F /  12.6 °C 51.2 °F /  10.7 °C 29.92in /  1013.1hPa Calm     88% 0.00in /  0mm
Buffalo, New York, USA
Compliments of Weather Underground - 2.5 mb